createdAt,value
2018-12-21T00:00:22.265Z,14.47
2018-12-21T00:02:49.760Z,18.67
2018-12-21T00:05:17.409Z,33.47
2018-12-21T00:07:45.074Z,20.43
2018-12-21T00:10:12.561Z,17.40
2018-12-21T00:12:40.057Z,16.63
2018-12-21T00:15:07.624Z,14.40
2018-12-21T00:17:35.126Z,10.00
2018-12-21T00:20:02.862Z,12.00
2018-12-21T00:22:30.348Z,12.10
2018-12-21T00:24:57.832Z,11.77
2018-12-21T00:27:25.317Z,16.27
2018-12-21T00:29:52.804Z,20.50
2018-12-21T00:32:25.921Z,19.47
2018-12-21T00:34:59.291Z,17.90
2018-12-21T00:37:32.529Z,13.87
2018-12-21T00:40:05.771Z,31.73
2018-12-21T00:45:44.421Z,22.97
2018-12-21T00:48:11.905Z,45.03
2018-12-21T00:50:39.397Z,28.23
2018-12-21T00:53:06.888Z,18.10
2018-12-21T00:55:34.380Z,107.47
2018-12-21T00:58:01.873Z,49.40
2018-12-21T01:00:29.365Z,15.77
2018-12-21T01:02:56.860Z,28.47
2018-12-21T01:05:24.344Z,88.43
2018-12-21T01:07:51.874Z,75.30
2018-12-21T01:10:19.597Z,159.43
2018-12-21T01:12:47.085Z,255.27
2018-12-21T01:15:14.652Z,347.23
2018-12-21T01:17:42.183Z,182.17
2018-12-21T01:20:09.756Z,105.90
2018-12-21T01:22:37.620Z,72.90
2018-12-21T01:25:05.264Z,18.77
2018-12-21T01:27:32.823Z,79.77
2018-12-21T01:30:00.314Z,3.37
2018-12-21T01:32:27.789Z,3.37
2018-12-21T01:34:55.276Z,2.80
2018-12-21T01:37:22.841Z,4.37
2018-12-21T01:39:54.500Z,2.97
2018-12-21T01:42:22.068Z,3.17
2018-12-21T01:44:49.553Z,8.57
2018-12-21T01:47:17.035Z,9.20
2018-12-21T01:49:44.866Z,11.57
2018-12-21T01:52:12.352Z,7.20
2018-12-21T01:54:39.845Z,13.60
2018-12-21T01:57:07.337Z,13.00
2018-12-21T01:59:34.829Z,12.23
2018-12-21T02:02:02.317Z,10.37
2018-12-21T02:04:29.803Z,11.87
2018-12-21T02:06:57.285Z,9.53
2018-12-21T02:09:24.775Z,9.00
2018-12-21T02:11:52.256Z,14.00
2018-12-21T02:14:20.030Z,2.60
2018-12-21T02:16:47.529Z,2.43
2018-12-21T02:19:15.021Z,3.73
2018-12-21T02:21:42.508Z,2.80
2018-12-21T02:24:09.996Z,1.60
2018-12-21T02:26:37.480Z,10.70
2018-12-21T02:29:04.963Z,1.33
2018-12-21T02:31:32.436Z,1.50
2018-12-21T02:33:59.922Z,2.33
2018-12-21T02:36:27.410Z,4.60
2018-12-21T02:38:54.901Z,8.17
2018-12-21T02:41:22.394Z,9.00
2018-12-21T02:43:49.876Z,5.10
2018-12-21T02:46:17.361Z,4.53
2018-12-21T02:48:44.858Z,3.37
2018-12-21T02:51:12.344Z,6.23
2018-12-21T02:53:39.838Z,18.43
2018-12-21T02:56:07.324Z,15.43
2018-12-21T02:58:34.831Z,4.27
2018-12-21T03:01:02.406Z,4.70
2018-12-21T03:03:29.888Z,1.70
2018-12-21T03:05:57.371Z,0.93
2018-12-21T03:08:24.868Z,0.80
2018-12-21T03:10:52.352Z,0.80
2018-12-21T03:13:19.848Z,1.50
2018-12-21T03:15:47.328Z,1.00
2018-12-21T03:18:14.813Z,1.70
2018-12-21T03:20:42.300Z,1.30
2018-12-21T03:23:09.787Z,1.53
2018-12-21T03:25:37.273Z,1.10
2018-12-21T03:28:04.749Z,2.67
2018-12-21T03:30:32.314Z,1.13
2018-12-21T03:32:59.794Z,0.90
2018-12-21T03:35:27.290Z,1.63
2018-12-21T03:37:54.792Z,1.30
2018-12-21T03:40:22.382Z,1.30
2018-12-21T03:42:49.870Z,1.90
2018-12-21T03:45:17.358Z,1.30
2018-12-21T03:47:44.840Z,0.73
2018-12-21T03:50:12.401Z,1.43
2018-12-21T03:52:39.887Z,1.00
2018-12-21T03:55:07.552Z,0.80
2018-12-21T03:57:35.040Z,0.60
2018-12-21T04:00:02.623Z,0.87
2018-12-21T04:02:30.115Z,0.60
2018-12-21T04:04:57.601Z,0.67
2018-12-21T04:07:25.088Z,0.70
2018-12-21T04:09:52.576Z,0.60
2018-12-21T04:12:20.057Z,0.93
2018-12-21T04:14:47.549Z,0.60
2018-12-21T04:17:15.105Z,0.70
2018-12-21T04:19:42.610Z,0.70
2018-12-21T04:22:10.093Z,0.60
2018-12-21T04:24:37.581Z,0.93
2018-12-21T04:27:05.068Z,0.83
2018-12-21T04:29:32.553Z,0.60
2018-12-21T04:32:00.034Z,0.87
2018-12-21T04:34:27.520Z,0.87
2018-12-21T04:36:55.005Z,1.00
2018-12-21T04:39:22.492Z,1.83
2018-12-21T04:41:49.976Z,1.90
2018-12-21T04:44:17.461Z,0.90
2018-12-21T04:46:45.020Z,1.67
2018-12-21T04:49:12.504Z,1.23
2018-12-21T04:51:40.164Z,3.80
2018-12-21T04:54:07.644Z,1.40
2018-12-21T04:56:35.128Z,1.17
2018-12-21T04:59:02.615Z,6.00
2018-12-21T05:01:30.117Z,1.70
2018-12-21T05:03:57.589Z,1.47
2018-12-21T05:06:25.149Z,1.30
2018-12-21T05:08:52.628Z,1.30
2018-12-21T05:11:20.124Z,1.43
2018-12-21T05:13:47.621Z,0.80
2018-12-21T05:16:15.109Z,0.60
2018-12-21T05:18:42.593Z,0.77
2018-12-21T05:21:10.073Z,0.60
2018-12-21T05:23:37.562Z,0.90
2018-12-21T05:26:05.040Z,0.70
2018-12-21T05:28:32.530Z,0.80
2018-12-21T05:31:00.014Z,0.70
2018-12-21T05:33:27.500Z,0.80
2018-12-21T05:35:54.992Z,1.37
2018-12-21T05:38:22.478Z,1.00
2018-12-21T05:40:49.955Z,1.67
2018-12-21T05:43:17.441Z,0.90
2018-12-21T05:45:44.928Z,1.00
2018-12-21T05:48:12.419Z,1.00
2018-12-21T05:50:39.896Z,0.70
2018-12-21T05:53:07.376Z,0.67
2018-12-21T05:55:34.857Z,2.50
2018-12-21T05:58:02.344Z,1.10
2018-12-21T06:00:29.832Z,0.80
2018-12-21T06:02:57.315Z,0.70
2018-12-21T06:05:24.797Z,0.80
2018-12-21T06:07:52.279Z,1.63
2018-12-21T06:10:19.756Z,2.97
2018-12-21T06:12:47.242Z,1.63
2018-12-21T06:15:14.729Z,1.87
2018-12-21T06:17:42.213Z,2.00
2018-12-21T06:20:09.893Z,2.00
2018-12-21T06:22:37.372Z,1.83
2018-12-21T06:25:05.404Z,1.40
2018-12-21T06:27:32.892Z,1.60
2018-12-21T06:30:00.373Z,2.20
2018-12-21T06:32:27.861Z,2.43
2018-12-21T06:34:55.621Z,2.50
2018-12-21T06:37:23.101Z,3.33
2018-12-21T06:39:50.596Z,5.37
2018-12-21T06:42:18.084Z,2.37
2018-12-21T06:44:45.572Z,2.60
2018-12-21T06:47:13.054Z,2.63
2018-12-21T06:49:40.537Z,1.63
2018-12-21T06:52:08.031Z,1.70
2018-12-21T06:54:35.508Z,2.03
2018-12-21T06:57:02.997Z,2.23
2018-12-21T06:59:30.518Z,3.33
2018-12-21T07:01:58.013Z,4.17
2018-12-21T07:04:25.496Z,5.83
2018-12-21T07:06:52.978Z,5.17
2018-12-21T07:09:20.458Z,3.80
2018-12-21T07:11:47.948Z,6.27
2018-12-21T07:14:15.433Z,5.97
2018-12-21T07:16:42.914Z,5.40
2018-12-21T07:19:10.393Z,5.63
2018-12-21T07:21:37.874Z,7.33
2018-12-21T07:24:05.356Z,5.73
2018-12-21T07:26:32.840Z,4.40
2018-12-21T07:29:00.700Z,4.33
2018-12-21T07:31:28.177Z,5.20
2018-12-21T07:33:55.668Z,5.33
2018-12-21T07:36:23.152Z,6.70
2018-12-21T07:38:50.643Z,4.10
2018-12-21T07:41:18.140Z,4.00
2018-12-21T07:43:45.631Z,3.97
2018-12-21T07:46:13.249Z,3.47
2018-12-21T07:48:40.946Z,4.00
2018-12-21T07:51:08.443Z,8.13
2018-12-21T07:53:36.285Z,6.50
2018-12-21T07:56:03.937Z,4.50
2018-12-21T07:58:31.417Z,4.83
2018-12-21T08:00:58.900Z,5.23
2018-12-21T08:03:26.380Z,6.33
2018-12-21T08:05:53.860Z,6.60
2018-12-21T08:08:21.345Z,4.00
2018-12-21T08:10:48.821Z,5.23
2018-12-21T08:13:16.309Z,3.23
2018-12-21T08:15:43.783Z,5.90
2018-12-21T08:18:11.264Z,6.17
2018-12-21T08:20:38.745Z,5.33
2018-12-21T08:23:06.221Z,7.67
2018-12-21T08:25:33.708Z,4.87
2018-12-21T08:28:01.186Z,4.47
2018-12-21T08:30:28.669Z,5.23
2018-12-21T08:32:56.142Z,5.77
2018-12-21T08:35:23.632Z,7.50
2018-12-21T08:37:51.117Z,6.63
2018-12-21T08:40:18.597Z,8.53
2018-12-21T08:42:46.081Z,6.03
2018-12-21T08:45:13.570Z,5.80
2018-12-21T08:47:41.044Z,9.43
2018-12-21T08:50:08.670Z,7.57
2018-12-21T08:52:36.148Z,4.70
2018-12-21T08:55:03.976Z,7.80
2018-12-21T08:57:31.457Z,5.60
2018-12-21T08:59:58.945Z,11.17
2018-12-21T09:02:26.425Z,14.33
2018-12-21T09:04:54.177Z,16.00
2018-12-21T09:07:21.727Z,21.43
2018-12-21T09:09:49.208Z,10.73
2018-12-21T09:12:16.689Z,14.83
2018-12-21T09:14:44.160Z,8.90
2018-12-21T09:17:11.641Z,6.30
2018-12-21T09:19:39.112Z,8.17
2018-12-21T09:22:06.589Z,13.80
2018-12-21T09:24:34.069Z,17.90
2018-12-21T09:27:01.549Z,19.27
2018-12-21T09:29:29.028Z,14.40
2018-12-21T09:32:04.865Z,11.93
2018-12-21T09:34:26.008Z,16.20
2018-12-21T09:36:53.488Z,19.40
2018-12-21T09:39:20.969Z,22.33
2018-12-21T09:41:48.600Z,26.13
2018-12-21T09:44:16.080Z,25.23
2018-12-21T09:46:43.565Z,23.37
2018-12-21T09:49:11.048Z,24.70
2018-12-21T09:51:38.529Z,25.53
2018-12-21T09:54:09.906Z,20.97
2018-12-21T09:56:35.496Z,19.93
2018-12-21T09:59:02.977Z,37.13
2018-12-21T10:01:30.460Z,18.50
2018-12-21T10:03:58.024Z,22.57
2018-12-21T10:06:25.652Z,18.10
2018-12-21T10:08:53.133Z,18.23
2018-12-21T10:11:20.620Z,14.03
2018-12-21T10:13:48.101Z,23.37
2018-12-21T10:16:15.588Z,16.93
2018-12-21T10:18:43.069Z,18.30
2018-12-21T10:21:10.553Z,19.17
2018-12-21T10:23:38.032Z,14.50
2018-12-21T10:26:05.511Z,12.83
2018-12-21T10:28:32.995Z,15.37
2018-12-21T10:31:00.473Z,21.40
2018-12-21T10:33:27.952Z,14.40
2018-12-21T10:35:55.433Z,12.63
2018-12-21T10:38:22.912Z,11.20
2018-12-21T10:40:50.394Z,11.03
2018-12-21T10:43:17.865Z,12.33
2018-12-21T10:45:45.348Z,13.97
2018-12-21T10:48:12.832Z,11.80
2018-12-21T10:50:40.305Z,9.60
2018-12-21T10:53:07.786Z,16.13
2018-12-21T10:55:35.260Z,10.20
2018-12-21T10:58:02.732Z,9.93
2018-12-21T11:00:30.213Z,12.23
2018-12-21T11:02:57.693Z,14.07
2018-12-21T11:05:25.173Z,10.93
2018-12-21T11:07:52.657Z,11.97
2018-12-21T11:10:20.149Z,11.40
2018-12-21T11:12:47.628Z,10.50
2018-12-21T11:15:15.108Z,12.93
2018-12-21T11:17:43.989Z,12.47
2018-12-21T11:20:11.676Z,19.47
2018-12-21T11:22:39.161Z,12.67
2018-12-21T11:25:09.340Z,13.23
2018-12-21T11:27:36.812Z,12.50
2018-12-21T11:30:06.915Z,11.80
2018-12-21T11:32:34.396Z,13.20
2018-12-21T11:35:01.869Z,9.77
2018-12-21T11:37:29.362Z,8.50
2018-12-21T11:39:56.916Z,10.93
2018-12-21T11:42:24.393Z,10.97
2018-12-21T11:44:51.868Z,12.30
2018-12-21T11:47:19.345Z,11.53
2018-12-21T11:49:46.820Z,11.63
2018-12-21T11:52:14.300Z,12.03
2018-12-21T11:54:44.446Z,18.07
2018-12-21T11:57:11.261Z,12.00
2018-12-21T11:59:44.789Z,10.97
2018-12-21T12:02:08.249Z,13.70
2018-12-21T12:04:35.736Z,11.60
2018-12-21T12:07:03.221Z,10.77
2018-12-21T12:09:30.786Z,10.30
2018-12-21T12:11:58.304Z,13.47
2018-12-21T12:14:25.784Z,10.60
2018-12-21T12:16:53.262Z,17.30
2018-12-21T12:19:20.733Z,9.77
2018-12-21T12:21:48.212Z,11.37
2018-12-21T12:24:15.688Z,11.40
2018-12-21T12:26:44.561Z,14.00
2018-12-21T12:29:12.365Z,11.57
2018-12-21T12:31:39.912Z,9.60
2018-12-21T12:34:07.391Z,11.70
2018-12-21T12:36:34.877Z,11.40
2018-12-21T12:39:02.345Z,9.00
2018-12-21T12:41:29.831Z,8.73
2018-12-21T12:43:57.316Z,13.13
2018-12-21T12:46:24.791Z,9.43
2018-12-21T12:48:52.345Z,11.50
2018-12-21T12:51:19.820Z,10.83
2018-12-21T12:53:47.301Z,10.83
2018-12-21T12:56:14.773Z,8.77
2018-12-21T12:58:42.253Z,11.20
2018-12-21T13:01:09.725Z,10.73
2018-12-21T13:03:37.199Z,8.80
2018-12-21T13:06:04.668Z,9.00
2018-12-21T13:08:32.148Z,10.20
2018-12-21T13:10:59.638Z,11.73
2018-12-21T13:13:27.109Z,10.37
2018-12-21T13:15:54.590Z,10.07
2018-12-21T13:18:22.068Z,16.77
2018-12-21T13:20:49.633Z,11.20
2018-12-21T13:23:17.100Z,9.40
2018-12-21T13:25:44.596Z,14.63
2018-12-21T13:28:12.076Z,13.83
2018-12-21T13:30:39.578Z,15.20
2018-12-21T13:33:07.172Z,15.57
2018-12-21T13:35:34.647Z,14.03
2018-12-21T13:38:02.125Z,13.87
2018-12-21T13:40:29.606Z,14.47
2018-12-21T13:42:57.091Z,14.23
2018-12-21T13:45:24.572Z,19.20
2018-12-21T13:47:52.053Z,19.20
2018-12-21T13:50:19.536Z,18.20
2018-12-21T13:52:47.021Z,18.60
2018-12-21T13:55:20.247Z,15.90
2018-12-21T13:57:44.008Z,15.50
2018-12-21T14:00:11.560Z,21.90
2018-12-21T14:02:39.041Z,14.00
2018-12-21T14:05:06.521Z,12.83
2018-12-21T14:07:34.000Z,14.30
2018-12-21T14:10:01.485Z,14.20
2018-12-21T14:12:28.970Z,13.90
2018-12-21T14:14:56.444Z,16.57
2018-12-21T14:17:23.924Z,13.17
2018-12-21T14:19:51.409Z,18.60
2018-12-21T14:22:18.893Z,13.87
2018-12-21T14:24:46.377Z,17.50
2018-12-21T14:27:13.852Z,17.97
2018-12-21T14:29:41.333Z,15.70
2018-12-21T14:32:08.818Z,17.93
2018-12-21T14:34:36.292Z,18.30
2018-12-21T14:37:03.777Z,16.97
2018-12-21T14:39:31.284Z,15.90
2018-12-21T14:41:58.765Z,18.60
2018-12-21T14:44:26.253Z,25.13
2018-12-21T14:46:53.737Z,21.60
2018-12-21T14:49:21.220Z,18.13
2018-12-21T14:51:48.704Z,25.63
2018-12-21T14:54:16.184Z,20.00
2018-12-21T14:56:43.669Z,25.57
2018-12-21T14:59:11.154Z,26.27
2018-12-21T15:01:38.705Z,24.23
2018-12-21T15:04:06.189Z,22.30
2018-12-21T15:06:33.772Z,19.20
2018-12-21T15:09:01.280Z,19.27
2018-12-21T15:11:28.761Z,17.93
2018-12-21T15:13:56.249Z,24.60
2018-12-21T15:16:23.733Z,21.63
2018-12-21T15:18:51.214Z,26.43
2018-12-21T15:21:18.693Z,19.57
2018-12-21T15:23:46.175Z,27.80
2018-12-21T15:26:13.653Z,21.30
2018-12-21T15:28:41.137Z,25.30
2018-12-21T15:31:08.617Z,17.13
2018-12-21T15:33:36.101Z,19.90
2018-12-21T15:36:03.581Z,18.73
2018-12-21T15:38:31.061Z,15.30
2018-12-21T15:40:58.541Z,20.63
2018-12-21T15:43:26.034Z,23.03
2018-12-21T15:45:53.513Z,18.27
2018-12-21T15:48:20.992Z,20.83
2018-12-21T15:50:48.549Z,19.13
2018-12-21T15:53:16.032Z,13.30
2018-12-21T15:55:43.517Z,17.70
2018-12-21T15:58:11.549Z,10.10
2018-12-21T16:00:39.982Z,12.03
2018-12-21T16:03:07.457Z,8.60
2018-12-21T16:05:34.932Z,15.13
2018-12-21T16:08:02.422Z,12.90
2018-12-21T16:10:29.905Z,12.77
2018-12-21T16:12:57.385Z,14.40
2018-12-21T16:15:24.872Z,16.20
2018-12-21T16:17:52.362Z,8.77
2018-12-21T16:20:19.865Z,12.97
2018-12-21T16:22:47.335Z,7.60
2018-12-21T16:25:14.896Z,12.67
2018-12-21T16:27:42.368Z,7.53
2018-12-21T16:30:10.201Z,4.60
2018-12-21T16:32:37.693Z,13.87
2018-12-21T16:35:05.342Z,10.27
2018-12-21T16:37:33.065Z,9.30
2018-12-21T16:40:00.548Z,8.50
2018-12-21T16:42:28.026Z,4.43
2018-12-21T16:44:55.497Z,4.10
2018-12-21T16:47:23.002Z,6.27
2018-12-21T16:49:50.551Z,5.57
2018-12-21T16:52:18.032Z,4.07
2018-12-21T16:54:45.702Z,3.90
2018-12-21T16:57:13.178Z,3.10
2018-12-21T16:59:40.649Z,3.00
2018-12-21T17:02:08.138Z,1.77
2018-12-21T17:04:35.697Z,1.60
2018-12-21T17:07:03.196Z,4.43
2018-12-21T17:09:30.713Z,4.30
2018-12-21T17:11:58.180Z,4.07
2018-12-21T17:14:25.664Z,2.63
2018-12-21T17:16:53.140Z,6.00
2018-12-21T17:19:20.690Z,3.90
2018-12-21T17:21:48.165Z,3.27
2018-12-21T17:24:15.636Z,3.90
2018-12-21T17:26:43.190Z,2.30
2018-12-21T17:29:10.663Z,3.17
2018-12-21T17:31:38.142Z,2.53
2018-12-21T17:34:05.617Z,1.17
2018-12-21T17:36:33.093Z,3.10
2018-12-21T17:39:00.677Z,1.70
2018-12-21T17:41:28.180Z,3.00
2018-12-21T17:43:55.660Z,4.73
2018-12-21T17:46:23.137Z,2.10
2018-12-21T17:48:50.685Z,3.33
2018-12-21T17:51:18.160Z,2.93
2018-12-21T17:53:45.633Z,1.70
2018-12-21T17:56:13.109Z,2.30
2018-12-21T17:58:40.598Z,3.17
2018-12-21T18:01:08.148Z,4.03
2018-12-21T18:03:35.628Z,3.53
2018-12-21T18:06:03.257Z,3.60
2018-12-21T18:08:30.733Z,2.90
2018-12-21T18:10:58.213Z,4.50
2018-12-21T18:13:25.681Z,2.90
2018-12-21T18:15:53.157Z,3.03
2018-12-21T18:18:25.237Z,3.47
2018-12-21T18:20:50.117Z,2.07
2018-12-21T18:23:17.592Z,2.43
2018-12-21T18:25:45.924Z,2.57
2018-12-21T18:28:17.348Z,2.77
2018-12-21T18:30:44.828Z,3.93
2018-12-21T18:33:12.380Z,3.23
2018-12-21T18:35:39.932Z,1.90
2018-12-21T18:38:07.489Z,7.80
2018-12-21T18:40:34.999Z,6.43
2018-12-21T18:43:02.468Z,2.40
2018-12-21T18:45:30.017Z,3.27
2018-12-21T18:47:57.540Z,3.53
2018-12-21T18:50:25.013Z,3.37
2018-12-21T18:52:52.489Z,7.20
2018-12-21T18:55:19.957Z,3.40
2018-12-21T18:57:47.441Z,2.30
2018-12-21T19:00:14.993Z,1.80
2018-12-21T19:02:42.468Z,5.03
2018-12-21T19:05:10.021Z,2.53
2018-12-21T19:07:37.500Z,2.70
2018-12-21T19:10:06.722Z,2.30
2018-12-21T19:12:34.201Z,1.90
2018-12-21T19:15:01.681Z,2.63
2018-12-21T19:17:29.153Z,2.07
2018-12-21T19:19:56.625Z,2.00
2018-12-21T19:22:24.097Z,2.57
2018-12-21T19:24:51.586Z,4.00
2018-12-21T19:27:19.076Z,2.00
2018-12-21T19:29:46.549Z,1.77
2018-12-21T19:32:14.025Z,1.30
2018-12-21T19:34:41.806Z,1.30
2018-12-21T19:37:09.450Z,2.40
2018-12-21T19:39:37.000Z,1.73
2018-12-21T19:42:04.626Z,2.87
2018-12-21T19:44:32.277Z,2.23
2018-12-21T19:47:01.999Z,3.50
2018-12-21T19:49:29.684Z,6.10
2018-12-21T19:51:57.184Z,5.90
2018-12-21T19:54:25.084Z,3.73
2018-12-21T19:57:04.439Z,3.40
2018-12-21T19:59:29.001Z,2.00
2018-12-21T20:01:57.365Z,2.23
2018-12-21T20:04:24.857Z,1.80
2018-12-21T20:06:52.492Z,1.60
2018-12-21T20:09:21.116Z,1.73
2018-12-21T20:11:48.593Z,3.53
2018-12-21T20:14:16.074Z,1.30
2018-12-21T20:16:43.553Z,1.57
2018-12-21T20:19:11.024Z,3.57
2018-12-21T20:21:38.576Z,1.57
2018-12-21T20:24:06.056Z,2.83
2018-12-21T20:26:33.530Z,2.30
2018-12-21T20:29:01.005Z,2.93
2018-12-21T20:31:28.485Z,1.60
2018-12-21T20:33:56.076Z,1.03
2018-12-21T20:36:23.561Z,1.07
2018-12-21T20:38:51.036Z,1.13
2018-12-21T20:41:18.515Z,1.20
2018-12-21T20:43:46.108Z,1.40
2018-12-21T20:46:13.596Z,1.13
2018-12-21T20:48:41.094Z,1.20
2018-12-21T20:51:08.566Z,1.53
2018-12-21T20:53:36.040Z,1.00
2018-12-21T20:56:03.593Z,1.03
2018-12-21T20:58:31.221Z,1.50
2018-12-21T21:00:58.732Z,1.30
2018-12-21T21:03:26.208Z,1.00
2018-12-21T21:05:53.689Z,1.13
2018-12-21T21:08:21.164Z,1.03
2018-12-21T21:10:48.642Z,1.43
2018-12-21T21:13:19.418Z,1.03
2018-12-21T21:15:45.600Z,1.00
2018-12-21T21:18:13.080Z,1.83
2018-12-21T21:20:40.553Z,0.90
2018-12-21T21:23:08.030Z,1.20
2018-12-21T21:25:35.506Z,1.50
2018-12-21T21:28:02.980Z,0.90
2018-12-21T21:30:31.747Z,0.87
2018-12-21T21:32:59.220Z,0.97
2018-12-21T21:35:26.696Z,1.10
2018-12-21T21:37:54.375Z,0.87
2018-12-21T21:40:21.868Z,1.20
2018-12-21T21:42:57.201Z,1.50
2018-12-21T21:45:18.830Z,1.00
2018-12-21T21:47:46.305Z,0.93
2018-12-21T21:50:13.785Z,1.10
2018-12-21T21:52:41.267Z,1.10
2018-12-21T21:55:08.949Z,1.60
2018-12-21T21:57:39.627Z,1.10
2018-12-21T22:00:09.748Z,1.80
2018-12-21T22:02:37.233Z,1.00
2018-12-21T22:05:04.780Z,0.93
2018-12-21T22:07:32.256Z,1.00
2018-12-21T22:09:59.735Z,1.10
2018-12-21T22:12:27.207Z,1.10
2018-12-21T22:14:54.724Z,1.10
2018-12-21T22:17:22.209Z,1.20
2018-12-21T22:19:49.684Z,1.23
2018-12-21T22:22:17.234Z,1.20
2018-12-21T22:24:44.725Z,0.93
2018-12-21T22:27:12.197Z,1.00
2018-12-21T22:29:39.694Z,1.47
2018-12-21T22:32:07.172Z,1.03
2018-12-21T22:34:34.649Z,0.83
2018-12-21T22:37:02.121Z,1.10
2018-12-21T22:39:29.605Z,3.37
2018-12-21T22:41:57.084Z,1.20
2018-12-21T22:44:24.570Z,1.20
2018-12-21T22:46:52.044Z,0.93
2018-12-21T22:49:19.526Z,1.50
2018-12-21T22:51:47.009Z,1.23
2018-12-21T22:54:14.487Z,1.77
2018-12-21T22:56:41.965Z,2.07
2018-12-21T22:59:09.509Z,1.23
2018-12-21T23:01:36.980Z,1.13
2018-12-21T23:04:04.461Z,1.40
2018-12-21T23:06:31.936Z,1.23
2018-12-21T23:08:59.413Z,1.50
2018-12-21T23:11:26.888Z,1.70
2018-12-21T23:13:54.361Z,1.47
2018-12-21T23:16:21.833Z,1.30
2018-12-21T23:18:49.320Z,1.30
2018-12-21T23:21:16.800Z,1.20
2018-12-21T23:23:44.289Z,1.20
2018-12-21T23:26:11.768Z,1.33
2018-12-21T23:28:39.244Z,0.90
2018-12-21T23:31:06.732Z,1.00
2018-12-21T23:33:34.208Z,0.87
2018-12-21T23:36:01.688Z,1.03
2018-12-21T23:38:29.164Z,1.00
2018-12-21T23:40:56.642Z,1.10
2018-12-21T23:43:24.113Z,1.03
2018-12-21T23:45:51.593Z,0.80
2018-12-21T23:48:19.061Z,1.03
2018-12-21T23:50:46.533Z,0.90
2018-12-21T23:53:14.005Z,1.10
2018-12-21T23:55:41.484Z,1.00
2018-12-21T23:58:13.628Z,0.90
